Time;durP1;ratioP1;P1;durP2;ratioP2;P2;SDS_P1;SDS_P2;PMS_P1;PMS_P2;Temp;Humidity;BMP_temperature;BMP_pressure;BME280_temperature;BME280_humidity;BME280_pressure;Samples;Min_cycle;Max_cycle;Signal;HPM_P1;HPM_P2
2021/11/18 00:01:05;;;;;;;46.87;14.33;;;;;;;0.97;75.82;100284.91;4962544;28;20545;-69
2021/11/18 00:03:31;;;;;;;43.63;14.80;;;;;;;0.94;75.24;100282.41;4975205;28;20290;-69
2021/11/18 00:06:00;;;;;;;44.72;14.80;;;;;;;0.80;75.80;100286.22;4970922;28;20046;-69
2021/11/18 00:08:26;;;;;;;45.55;15.02;;;;;;;0.91;76.07;100279.88;4959798;28;20118;-70
2021/11/18 00:10:55;;;;;;;41.45;14.20;;;;;;;0.94;75.44;100287.63;4966873;28;20043;-68
2021/11/18 00:13:24;;;;;;;40.58;13.60;;;;;;;0.91;75.55;100279.88;4970513;28;20570;-66
2021/11/18 00:15:50;;;;;;;39.10;13.60;;;;;;;0.94;76.14;100279.81;4941556;28;20070;-69
2021/11/18 00:18:19;;;;;;;42.30;13.07;;;;;;;0.91;75.33;100279.88;4958823;28;20479;-71
2021/11/18 00:20:54;;;;;;;35.40;12.82;;;;;;;0.85;75.78;100264.41;4956899;28;20038;-68
2021/11/18 00:23:23;;;;;;;37.65;12.95;;;;;;;0.85;75.64;100275.69;4956159;29;20050;-69
2021/11/18 00:25:49;;;;;;;44.25;15.27;;;;;;;0.79;75.50;100271.50;4955950;29;20103;-68
2021/11/18 00:28:14;;;;;;;40.72;13.90;;;;;;;0.80;76.37;100272.38;4938962;29;20047;-71
2021/11/18 00:30:41;;;;;;;44.40;14.15;;;;;;;0.71;75.80;100270.88;4956178;29;20623;-69
2021/11/18 00:33:09;;;;;;;43.17;14.65;;;;;;;0.81;75.76;100263.66;4955752;28;20078;-69
2021/11/18 00:35:35;;;;;;;32.53;12.13;;;;;;;0.84;75.37;100265.34;4955452;28;20035;-68
2021/11/18 00:38:01;;;;;;;38.67;12.95;;;;;;;0.82;74.51;100265.34;4944377;29;20054;-68
2021/11/18 00:40:37;;;;;;;33.88;13.00;;;;;;;0.84;75.13;100265.34;4955951;29;20094;-68
2021/11/18 00:43:04;;;;;;;41.67;13.50;;;;;;;0.88;74.97;100259.13;4958714;28;20058;-69
2021/11/18 00:45:30;;;;;;;41.85;13.05;;;;;;;0.98;74.08;100260.56;4955906;29;20106;-68
2021/11/18 00:47:56;;;;;;;40.67;12.63;;;;;;;0.98;73.83;100249.31;4956445;28;20043;-68
2021/11/18 00:50:28;;;;;;;39.28;13.10;;;;;;;0.92;73.93;100251.22;4944131;28;20046;-71
2021/11/18 00:52:55;;;;;;;35.95;12.65;;;;;;;0.82;74.23;100259.31;4943794;28;20149;-68
2021/11/18 00:55:25;;;;;;;39.95;13.02;;;;;;;0.76;74.20;100250.78;4961709;28;20043;-70
2021/11/18 00:57:52;;;;;;;36.47;13.27;;;;;;;0.76;74.58;100244.69;4969803;28;20097;-68
2021/11/18 01:00:24;;;;;;;37.72;11.57;;;;;;;0.76;74.35;100248.16;4939075;29;20131;-68
2021/11/18 01:02:51;;;;;;;37.25;11.63;;;;;;;0.76;73.41;100245.56;4943983;28;20039;-70
2021/11/18 01:05:20;;;;;;;42.45;12.82;;;;;;;0.69;73.29;100238.81;4956058;28;20058;-70
2021/11/18 01:07:46;;;;;;;40.78;11.57;;;;;;;0.55;73.71;100241.78;4948195;29;20043;-68
2021/11/18 01:10:14;;;;;;;32.30;9.98;;;;;;;0.64;73.45;100238.09;4938691;28;20509;-67
2021/11/18 01:12:41;;;;;;;28.58;9.07;;;;;;;0.60;72.73;100232.09;4954607;28;20490;-68
2021/11/18 01:15:08;;;;;;;27.23;10.07;;;;;;;0.59;72.12;100237.34;4955293;28;20063;-70
2021/11/18 01:17:34;;;;;;;29.65;9.73;;;;;;;0.57;71.64;100233.94;4940963;29;20043;-67
2021/11/18 01:20:03;;;;;;;32.58;11.00;;;;;;;0.41;72.08;100236.94;4948577;28;20564;-68
2021/11/18 01:22:31;;;;;;;27.60;9.85;;;;;;;0.37;71.51;100231.84;4941461;28;20039;-68
2021/11/18 01:24:58;;;;;;;26.65;9.68;;;;;;;0.37;71.53;100229.25;4945093;28;20055;-69
2021/11/18 01:27:27;;;;;;;25.65;9.02;;;;;;;0.36;71.13;100228.38;4946364;28;20078;-65
2021/11/18 01:30:06;;;;;;;25.38;9.65;;;;;;;0.40;70.99;100226.56;4938799;29;20049;-68
2021/11/18 01:32:33;;;;;;;28.27;9.18;;;;;;;0.45;71.10;100219.50;4969717;28;20488;-70
2021/11/18 01:34:59;;;;;;;26.48;9.13;;;;;;;0.42;70.20;100233.44;4937610;28;20047;-70
2021/11/18 01:37:25;;;;;;;30.23;8.73;;;;;;;0.39;70.32;100225.72;4967785;28;20094;-69
2021/11/18 01:39:52;;;;;;;25.58;8.38;;;;;;;0.28;70.46;100218.19;4937418;29;20042;-69
2021/11/18 01:42:19;;;;;;;31.73;9.95;;;;;;;0.32;70.45;100225.03;4954564;28;20586;-68
2021/11/18 01:44:49;;;;;;;28.58;8.85;;;;;;;0.30;69.39;100216.41;4969129;28;20059;-67
2021/11/18 01:47:16;;;;;;;23.73;8.93;;;;;;;0.24;69.51;100226.13;4935242;28;20165;-68
2021/11/18 01:49:45;;;;;;;20.92;7.30;;;;;;;0.32;69.20;100226.75;4941882;28;20053;-68
2021/11/18 01:52:14;;;;;;;30.95;8.93;;;;;;;0.25;69.02;100225.22;4935885;29;20058;-71
2021/11/18 01:54:42;;;;;;;28.95;9.05;;;;;;;0.23;69.10;100224.41;4949893;28;20050;-71
2021/11/18 01:57:12;;;;;;;26.95;9.60;;;;;;;0.17;68.57;100219.38;4955359;28;20047;-68
2021/11/18 01:59:44;;;;;;;24.30;9.98;;;;;;;0.11;68.48;100223.84;4949050;29;20548;-67
2021/11/18 02:02:43;;;;;;;24.95;7.97;;;;;;;0.10;68.00;100216.91;4950779;29;20097;-67
2021/11/18 02:05:22;;;;;;;29.63;9.35;;;;;;;0.02;68.02;100215.41;4952817;29;20047;-67
2021/11/18 02:07:58;;;;;;;23.70;8.80;;;;;;;-0.04;68.11;100214.66;4933515;29;20052;-67
2021/11/18 02:10:44;;;;;;;31.08;9.23;;;;;;;-0.01;67.71;100206.78;4926806;29;20042;-70
2021/11/18 02:13:13;;;;;;;23.42;8.73;;;;;;;0.00;68.02;100207.66;4919944;29;20052;-70
2021/11/18 02:15:44;;;;;;;31.05;9.27;;;;;;;0.01;67.25;100209.34;4936683;29;20051;-68
2021/11/18 02:18:38;;;;;;;24.30;8.68;;;;;;;-0.01;67.63;100208.53;4935831;29;20055;-69
2021/11/18 02:21:10;;;;;;;32.47;9.03;;;;;;;-0.03;67.52;100202.50;4937561;29;20066;-69
2021/11/18 02:23:49;;;;;;;28.92;9.20;;;;;;;-0.01;67.10;100193.78;4935483;28;20611;-68
2021/11/18 02:26:17;;;;;;;25.60;8.85;;;;;;;0.01;66.92;100193.72;4936162;29;20085;-69
2021/11/18 02:28:44;;;;;;;27.38;9.45;;;;;;;-0.07;66.64;100206.09;4919825;29;20043;-70
2021/11/18 02:31:19;;;;;;;28.33;9.50;;;;;;;-0.11;66.63;100196.63;4935959;29;20500;-67
2021/11/18 02:33:46;;;;;;;20.83;7.35;;;;;;;-0.03;66.34;100194.72;4932117;28;20282;-70
2021/11/18 02:36:15;;;;;;;26.42;8.70;;;;;;;-0.07;66.56;100191.31;4935185;29;20075;-69
2021/11/18 02:38:42;;;;;;;27.00;8.65;;;;;;;-0.13;66.08;100190.63;4957533;28;20073;-68
2021/11/18 02:41:17;;;;;;;25.33;8.38;;;;;;;-0.11;66.19;100197.50;4947828;28;20518;-68
2021/11/18 02:43:44;;;;;;;30.08;8.38;;;;;;;-0.17;65.84;100185.50;4921785;29;20097;-68
2021/11/18 02:46:12;;;;;;;28.85;8.13;;;;;;;-0.15;65.99;100180.25;4967814;28;20062;-67
2021/11/18 02:48:38;;;;;;;28.10;9.32;;;;;;;-0.21;65.88;100178.69;4953147;28;20055;-68
2021/11/18 02:51:08;;;;;;;28.30;8.90;;;;;;;-0.24;65.80;100177.91;4935591;29;20403;-67
2021/11/18 02:53:35;;;;;;;22.42;8.55;;;;;;;-0.33;66.37;100178.97;4952385;28;20042;-69
2021/11/18 02:56:01;;;;;;;24.88;8.48;;;;;;;-0.40;66.14;100167.00;4955391;28;20046;-68
2021/11/18 02:58:28;;;;;;;30.70;8.75;;;;;;;-0.38;66.16;100170.44;4935605;29;20079;-69
2021/11/18 03:01:10;;;;;;;27.95;9.20;;;;;;;-0.35;65.98;100167.75;4935703;29;20035;-67
2021/11/18 03:03:37;;;;;;;25.40;8.60;;;;;;;-0.39;65.94;100173.91;4935867;28;20504;-67
2021/11/18 03:06:03;;;;;;;40.25;14.82;;;;;;;-0.37;66.20;100177.34;4935938;29;20043;-69
2021/11/18 03:08:30;;;;;;;31.80;11.65;;;;;;;-0.43;66.23;100162.75;4953638;29;20171;-69
2021/11/18 03:10:58;;;;;;;26.77;9.50;;;;;;;-0.41;66.48;100160.97;4935771;29;20125;-67
2021/11/18 03:13:25;;;;;;;33.42;9.38;;;;;;;-0.33;66.55;100158.19;4935447;29;20126;-68
2021/11/18 03:15:55;;;;;;;30.77;9.55;;;;;;;-0.31;65.96;100160.75;4920386;29;20047;-67
2021/11/18 03:18:24;;;;;;;27.02;9.65;;;;;;;-0.23;66.39;100149.25;4935732;29;20075;-69
2021/11/18 03:20:50;;;;;;;;;;;;;;;-0.19;65.89;100156.09;4953608;29;20066;-69
2021/11/18 03:23:17;;;;;;;27.08;9.60;;;;;;;-0.25;65.92;100151.06;4935569;29;19922;-67
2021/11/18 03:25:44;;;;;;;26.30;9.27;;;;;;;-0.23;66.23;100144.06;4935614;28;20055;-67
2021/11/18 03:28:20;;;;;;;30.38;9.48;;;;;;;-0.26;66.33;100141.56;4966916;28;20047;-67
2021/11/18 03:30:47;;;;;;;27.02;9.93;;;;;;;-0.33;66.04;100134.78;4952384;28;20525;-67
2021/11/18 03:33:19;;;;;;;34.83;10.18;;;;;;;-0.36;66.59;100137.47;4935322;29;20058;-67
2021/11/18 03:35:46;;;;;;;33.05;11.63;;;;;;;-0.32;66.49;100141.69;4937302;29;20059;-68
2021/11/18 03:38:12;;;;;;;30.83;10.55;;;;;;;-0.36;66.63;100133.13;4938747;29;20047;-67
2021/11/18 03:40:39;;;;;;;30.35;10.10;;;;;;;-0.42;66.50;100142.81;4952310;29;20048;-68
2021/11/18 03:43:09;;;;;;;33.25;11.77;;;;;;;-0.51;66.43;100136.09;4937543;28;20043;-68
2021/11/18 03:45:37;;;;;;;32.80;10.43;;;;;;;-0.52;66.43;100140.44;4939644;29;20078;-65
2021/11/18 03:48:05;;;;;;;30.87;10.87;;;;;;;-0.47;66.22;100135.13;4955777;29;20043;-67
2021/11/18 03:50:36;;;;;;;30.95;11.00;;;;;;;-0.52;66.32;100130.03;4939162;29;20165;-69
2021/11/18 03:53:03;;;;;;;36.45;12.23;;;;;;;-0.51;66.12;100129.16;4936211;29;20513;-70
2021/11/18 03:55:29;;;;;;;35.13;13.05;;;;;;;-0.59;66.18;100125.88;4936570;28;20043;-67
2021/11/18 03:57:57;;;;;;;33.70;11.60;;;;;;;-0.57;66.71;100123.28;4958378;28;20058;-67
2021/11/18 04:00:30;;;;;;;37.20;11.93;;;;;;;-0.56;66.52;100119.75;4945251;28;20477;-70
2021/11/18 04:02:57;;;;;;;32.42;11.60;;;;;;;-0.62;65.99;100123.38;4954964;28;20049;-68
2021/11/18 04:05:32;;;;;;;36.35;11.63;;;;;;;-0.76;65.87;100126.28;4944908;29;20066;-68
2021/11/18 04:07:59;;;;;;;33.78;11.63;;;;;;;-0.81;65.83;100120.31;4956266;28;20408;-70
2021/11/18 04:10:28;;;;;;;33.15;11.02;;;;;;;-0.88;65.73;100109.25;4938013;29;20051;-69
2021/11/18 04:12:55;;;;;;;34.38;12.20;;;;;;;-0.93;65.78;100121.47;4938900;29;20054;-70
2021/11/18 04:15:22;;;;;;;32.63;10.90;;;;;;;-0.92;66.04;100114.53;4938775;29;20512;-70
2021/11/18 04:17:52;;;;;;;55.65;17.30;;;;;;;-0.88;65.88;100118.78;4938639;29;20043;-68
2021/11/18 04:20:20;;;;;;;32.90;11.20;;;;;;;-0.90;65.95;100116.19;4942032;29;20512;-69
2021/11/18 04:22:49;;;;;;;34.80;11.67;;;;;;;-0.98;66.26;100112.94;4938811;29;20043;-69
2021/11/18 04:25:17;;;;;;;34.40;11.50;;;;;;;-0.97;66.04;100109.47;4938066;29;20291;-67
2021/11/18 04:27:44;;;;;;;32.53;11.70;;;;;;;-0.92;65.80;100112.81;4937978;29;20093;-70
2021/11/18 04:30:14;;;;;;;37.17;11.02;;;;;;;-0.91;66.21;100109.31;4937948;28;20055;-69
2021/11/18 04:32:48;;;;;;;34.47;12.30;;;;;;;-0.94;65.71;100099.00;4946952;28;20054;-69
2021/11/18 04:35:16;;;;;;;38.00;11.75;;;;;;;-0.87;65.78;100110.09;4937447;28;20039;-68
2021/11/18 04:37:42;;;;;;;39.28;11.85;;;;;;;-0.88;65.77;100103.19;4941816;28;20154;-68
2021/11/18 04:40:08;;;;;;;37.58;10.95;;;;;;;-1.00;66.02;100100.00;4969339;28;20499;-70
2021/11/18 04:42:34;;;;;;;39.40;12.73;;;;;;;-1.03;66.22;100096.63;4970127;28;20555;-67
2021/11/18 04:45:14;;;;;;;32.03;12.10;;;;;;;-1.09;66.31;100100.19;4925962;29;20047;-71
2021/11/18 04:47:41;;;;;;;41.75;10.77;;;;;;;-1.04;66.26;100087.13;4938210;28;20342;-67
2021/11/18 04:50:08;;;;;;;29.52;10.90;;;;;;;-1.06;66.29;100087.16;4937231;29;20054;-70
2021/11/18 04:52:35;;;;;;;31.52;10.77;;;;;;;-1.08;66.03;100095.88;4937544;29;20420;-68
2021/11/18 04:55:03;;;;;;;39.33;11.55;;;;;;;-1.06;66.12;100088.88;4938268;29;20043;-65
2021/11/18 04:57:29;;;;;;;36.50;12.60;;;;;;;-1.11;66.04;100083.78;4938435;29;20054;-69
2021/11/18 04:59:56;;;;;;;40.63;14.70;;;;;;;-1.09;66.17;100078.59;4938525;29;20054;-69
2021/11/18 05:02:23;;;;;;;38.55;12.88;;;;;;;-1.02;66.03;100081.00;4937945;29;20397;-68
2021/11/18 05:04:52;;;;;;;33.35;12.38;;;;;;;-1.05;65.79;100075.84;4922232;29;20500;-66
2021/11/18 05:07:19;;;;;;;36.63;12.55;;;;;;;-1.08;66.05;100070.75;4937900;29;20051;-69
2021/11/18 05:09:47;;;;;;;36.08;12.57;;;;;;;-1.07;66.00;100063.81;4937948;29;20076;-70
2021/11/18 05:12:13;;;;;;;35.97;11.70;;;;;;;-1.08;65.63;100056.94;4937946;29;20117;-69
2021/11/18 05:14:41;;;;;;;36.70;12.52;;;;;;;-1.07;65.79;100063.81;4938021;29;20047;-69
2021/11/18 05:17:09;;;;;;;50.78;15.25;;;;;;;-1.13;66.23;100067.41;4937944;29;20093;-69
2021/11/18 05:19:35;;;;;;;41.97;13.93;;;;;;;-1.04;66.20;100067.19;4938179;29;20142;-68
2021/11/18 05:22:01;;;;;;;49.15;15.38;;;;;;;-1.10;66.35;100059.53;4938559;29;20047;-67
2021/11/18 05:24:26;;;;;;;46.08;14.98;;;;;;;-1.26;66.29;100066.81;4938105;29;20047;-70
2021/11/18 05:26:56;;;;;;;48.65;14.23;;;;;;;-1.28;67.04;100058.22;4938578;29;20039;-68
2021/11/18 05:29:22;;;;;;;49.17;15.75;;;;;;;-1.34;67.06;100059.22;4939142;29;20531;-68
2021/11/18 05:31:48;;;;;;;60.60;17.98;;;;;;;-1.32;67.60;100054.84;4939522;29;20047;-67
2021/11/18 05:34:40;;;;;;;63.22;21.50;;;;;;;-1.36;67.40;100055.81;4876558;29;20049;-68
2021/11/18 05:37:10;;;;;;;56.03;16.77;;;;;;;-1.34;67.26;100053.19;4876715;29;20060;-70
2021/11/18 05:39:36;;;;;;;64.90;17.33;;;;;;;-1.41;67.10;100054.19;4876068;29;20574;-65
2021/11/18 05:42:03;;;;;;;67.55;19.10;;;;;;;-1.36;67.36;100054.94;4876538;29;20659;-68
2021/11/18 05:44:29;;;;;;;71.88;19.15;;;;;;;-1.41;67.51;100061.97;4876235;29;20243;-70
2021/11/18 05:46:55;;;;;;;60.42;18.23;;;;;;;-1.42;67.59;100061.13;4876522;29;20041;-70
2021/11/18 05:49:22;;;;;;;54.75;16.67;;;;;;;-1.48;67.10;100056.91;4876031;29;20045;-69
2021/11/18 05:51:48;;;;;;;64.10;17.35;;;;;;;-1.42;66.84;100047.28;4879308;29;20103;-69
2021/11/18 05:54:21;;;;;;;61.28;17.95;;;;;;;-1.51;66.47;100035.38;4861464;29;20048;-69
2021/11/18 05:56:47;;;;;;;57.63;18.08;;;;;;;-1.57;66.61;100045.88;4876031;29;20048;-69
2021/11/18 05:59:13;;;;;;;51.90;16.05;;;;;;;-1.70;66.73;100037.50;4859892;29;20049;-70
2021/11/18 06:01:40;;;;;;;58.72;16.15;;;;;;;-1.71;66.34;100046.16;4859821;29;20160;-72
2021/11/18 06:04:09;;;;;;;68.70;22.03;;;;;;;-1.72;66.40;100047.06;4859186;29;20065;-68
2021/11/18 06:06:46;;;;;;;61.03;19.02;;;;;;;-1.70;66.41;100045.28;4875169;29;20104;-67
2021/11/18 06:09:12;;;;;;;53.38;16.60;;;;;;;-1.77;66.37;100038.53;4860363;29;20435;-70
2021/11/18 06:11:41;;;;;;;56.95;16.60;;;;;;;-1.72;66.19;100039.28;4905160;29;20051;-70
2021/11/18 06:14:13;;;;;;;58.67;16.42;;;;;;;-1.75;66.15;100044.53;4936343;28;20054;-72
2021/11/18 06:16:39;;;;;;;56.22;15.88;;;;;;;-1.80;66.54;100037.69;4953346;28;20046;-68
2021/11/18 06:19:05;;;;;;;64.80;17.23;;;;;;;-1.77;66.35;100035.94;4953591;29;20131;-68
2021/11/18 06:21:37;;;;;;;50.75;14.07;;;;;;;-1.80;66.16;100042.03;4938355;28;20050;-69
2021/11/18 06:24:04;;;;;;;60.05;18.50;;;;;;;-1.88;66.34;100037.00;4949788;28;20113;-69
2021/11/18 06:26:32;;;;;;;59.50;16.70;;;;;;;-1.93;66.82;100038.84;4936186;29;20083;-72
2021/11/18 06:28:59;;;;;;;57.13;15.70;;;;;;;-1.88;66.80;100039.59;4949359;28;20058;-71
2021/11/18 06:31:26;;;;;;;65.88;17.13;;;;;;;-1.90;66.70;100023.22;4961767;28;20051;-67
2021/11/18 06:33:54;;;;;;;68.65;17.08;;;;;;;-1.98;66.55;100025.13;4949551;29;20058;-72
2021/11/18 06:36:20;;;;;;;59.53;16.20;;;;;;;-1.92;66.87;100022.38;4930874;29;20047;-68
2021/11/18 06:38:48;;;;;;;56.05;16.15;;;;;;;-1.97;66.97;100021.63;4936581;29;20099;-69
2021/11/18 06:41:15;;;;;;;;;;;;;;;-1.91;66.74;100016.31;4936195;29;20054;-70
2021/11/18 06:43:42;;;;;;;66.68;18.27;;;;;;;-1.88;66.79;100005.91;4936317;29;20290;-68
2021/11/18 06:46:12;;;;;;;56.60;17.10;;;;;;;-1.85;66.95;100011.00;4937419;29;20043;-70
2021/11/18 06:48:39;;;;;;;66.22;19.58;;;;;;;-1.81;66.91;100010.06;4936935;29;20043;-71
2021/11/18 06:51:18;;;;;;;53.33;15.38;;;;;;;-1.89;66.56;100011.97;4937337;29;20054;-70
2021/11/18 06:53:45;;;;;;;59.80;18.05;;;;;;;-1.91;66.84;100008.53;4936535;29;20464;-71
2021/11/18 06:56:15;;;;;;;77.47;22.58;;;;;;;-1.88;66.71;99998.13;4934848;29;20046;-71
2021/11/18 06:58:42;;;;;;;52.28;16.23;;;;;;;-1.90;66.79;100001.63;4936231;29;20055;-73
2021/11/18 07:01:09;;;;;;;49.70;15.60;;;;;;;-1.87;66.94;99999.84;4920234;29;20049;-69
2021/11/18 07:03:39;;;;;;;58.35;15.60;;;;;;;-1.80;67.20;99992.78;4903364;29;20047;-68
2021/11/18 07:06:08;;;;;;;54.10;15.05;;;;;;;-1.80;67.10;99992.78;4936131;29;20054;-69
2021/11/18 07:08:34;;;;;;;55.42;15.57;;;;;;;-1.84;67.14;99997.16;4935304;29;20050;-71
2021/11/18 07:11:00;;;;;;;55.70;16.23;;;;;;;-1.77;67.49;99997.03;4929961;28;20074;-69
2021/11/18 07:13:28;;;;;;;65.82;17.38;;;;;;;-1.73;67.18;99991.75;4920987;29;20048;-67
2021/11/18 07:15:54;;;;;;;54.08;14.82;;;;;;;-1.73;66.84;99994.34;4936994;28;20039;-70
2021/11/18 07:18:21;;;;;;;63.40;17.83;;;;;;;-1.77;67.10;99990.09;4938608;29;20043;-68
2021/11/18 07:20:48;;;;;;;65.90;19.60;;;;;;;-1.66;67.17;99985.56;4934077;29;20058;-66
2021/11/18 07:23:15;;;;;;;62.15;17.40;;;;;;;-1.69;67.00;99989.97;4903548;29;20115;-65
2021/11/18 07:25:45;;;;;;;61.88;17.80;;;;;;;-1.73;67.49;99988.28;4953514;28;20139;-65
2021/11/18 07:28:12;;;;;;;56.60;15.70;;;;;;;-1.67;66.92;99989.03;4934314;29;20043;-66
2021/11/18 07:30:38;;;;;;;57.65;15.63;;;;;;;-1.70;67.13;99983.06;4938576;28;20043;-68
2021/11/18 07:33:04;;;;;;;47.88;14.23;;;;;;;-1.69;67.27;99984.78;4955101;28;20049;-67
2021/11/18 07:35:31;;;;;;;51.00;15.60;;;;;;;-1.55;67.21;99977.53;4935965;29;20047;-71
2021/11/18 07:37:58;;;;;;;54.67;17.05;;;;;;;-1.51;66.94;99967.94;4935423;29;20090;-67
2021/11/18 07:40:31;;;;;;;53.05;16.55;;;;;;;-1.39;66.80;99972.00;4906038;29;20121;-68
2021/11/18 07:43:07;;;;;;;48.63;14.85;;;;;;;-1.43;66.31;99965.16;4936134;29;20043;-69
2021/11/18 07:45:54;;;;;;;54.90;16.95;;;;;;;-1.43;66.55;99965.16;4952605;29;20046;-69
2021/11/18 07:48:35;;;;;;;58.00;15.00;;;;;;;-1.53;66.71;99970.56;4935000;29;20140;-67
2021/11/18 07:51:05;;;;;;;49.28;13.80;;;;;;;-1.47;66.60;99961.78;4935526;29;20066;-69
2021/11/18 07:53:32;;;;;;;47.08;15.38;;;;;;;-1.40;65.66;99960.75;4919830;29;20051;-68
2021/11/18 07:55:58;;;;;;;58.88;17.13;;;;;;;-1.37;65.66;99959.84;4935621;29;20057;-68
2021/11/18 07:58:26;;;;;;;47.35;14.63;;;;;;;-1.39;65.05;99952.09;4935417;29;20171;-70
2021/11/18 08:00:55;;;;;;;50.70;15.52;;;;;;;-1.42;64.52;99956.50;4924447;28;20050;-67
2021/11/18 08:03:31;;;;;;;54.28;14.55;;;;;;;-1.32;64.79;99953.66;4938920;29;20051;-68
2021/11/18 08:06:25;;;;;;;47.38;14.98;;;;;;;-1.17;63.85;99942.06;4951843;28;20130;-68
2021/11/18 08:08:56;;;;;;;54.95;14.25;;;;;;;-1.13;62.99;99945.44;4937211;29;20476;-68
2021/11/18 08:11:33;;;;;;;41.03;13.57;;;;;;;-1.22;62.41;99954.28;4955046;28;20042;-70
2021/11/18 08:14:00;;;;;;;44.05;14.45;;;;;;;-1.21;62.23;99935.25;4918258;29;20066;-70
2021/11/18 08:16:27;;;;;;;37.67;12.20;;;;;;;-1.31;61.86;99938.94;4951762;28;20050;-67
2021/11/18 08:19:00;;;;;;;46.05;13.63;;;;;;;-1.15;61.67;99935.09;4933260;29;20161;-69
2021/11/18 08:21:26;;;;;;;42.53;15.25;;;;;;;-1.21;61.11;99937.84;4961664;28;20078;-69
2021/11/18 08:23:56;;;;;;;53.88;16.00;;;;;;;-1.09;61.39;99939.28;4923392;29;20051;-69
2021/11/18 08:26:25;;;;;;;57.00;16.55;;;;;;;-1.01;61.57;99939.06;4938123;29;20507;-70
2021/11/18 08:28:52;;;;;;;57.40;15.23;;;;;;;-0.96;62.01;99928.56;4938563;29;20058;-70
2021/11/18 08:31:19;;;;;;;54.22;17.63;;;;;;;-0.99;62.31;99922.56;4962887;28;20510;-70
2021/11/18 08:34:04;;;;;;;54.40;15.18;;;;;;;-0.87;62.47;99910.19;4957593;28;20043;-69
2021/11/18 08:36:31;;;;;;;50.08;13.75;;;;;;;-0.91;61.75;99921.53;4939168;29;20075;-68
2021/11/18 08:38:58;;;;;;;49.03;13.77;;;;;;;-0.90;61.83;99923.22;4938719;29;20051;-68
2021/11/18 08:41:24;;;;;;;53.97;17.67;;;;;;;-0.93;61.88;99920.72;4947073;28;20048;-69
2021/11/18 08:43:53;;;;;;;52.93;15.43;;;;;;;-0.89;61.77;99914.56;4941319;29;20043;-69
2021/11/18 08:46:22;;;;;;;53.55;15.30;;;;;;;-0.86;61.73;99910.13;4946694;28;20729;-69
2021/11/18 08:48:49;;;;;;;50.75;14.95;;;;;;;-0.78;61.45;99906.50;4950527;29;20435;-68
2021/11/18 08:51:20;;;;;;;49.83;15.52;;;;;;;-0.73;61.03;99908.06;4922280;29;20050;-66
2021/11/18 08:53:49;;;;;;;51.53;14.95;;;;;;;-0.84;61.10;99903.13;4950578;28;20118;-69
2021/11/18 08:56:17;;;;;;;44.30;13.77;;;;;;;-0.80;61.11;99903.06;4938123;29;20047;-67
2021/11/18 08:58:45;;;;;;;48.80;14.80;;;;;;;-0.88;59.92;99901.53;4969563;28;20047;-69
2021/11/18 09:01:22;;;;;;;46.33;14.88;;;;;;;-0.96;59.12;99894.84;4922577;29;20083;-71
2021/11/18 09:03:49;;;;;;;52.80;14.35;;;;;;;-0.68;58.98;99889.75;4937102;29;20051;-70
2021/11/18 09:06:21;;;;;;;42.08;13.88;;;;;;;-0.62;58.29;99886.13;4937088;29;20050;-67
2021/11/18 09:08:51;;;;;;;59.35;16.13;;;;;;;-0.41;57.53;99874.28;4937043;29;20070;-69
2021/11/18 09:11:18;;;;;;;106.40;31.30;;;;;;;-0.20;57.15;99870.22;4937761;29;20042;-69
2021/11/18 09:13:50;;;;;;;43.47;15.32;;;;;;;-0.28;57.28;99862.63;4936593;29;20046;-68
2021/11/18 09:16:19;;;;;;;51.47;17.25;;;;;;;-0.24;57.27;99859.03;4937097;29;20047;-67
2021/11/18 09:18:59;;;;;;;53.78;15.65;;;;;;;-0.29;57.01;99855.72;4936766;29;20456;-70
2021/11/18 09:21:27;;;;;;;44.33;15.10;;;;;;;-0.39;57.73;99862.94;4921073;29;20127;-69
2021/11/18 09:23:59;;;;;;;54.33;17.35;;;;;;;-0.41;58.19;99859.56;4936933;29;20299;-72
2021/11/18 09:26:28;;;;;;;46.55;15.65;;;;;;;-0.52;58.38;99857.25;4953800;29;20057;-68
2021/11/18 09:28:55;;;;;;;60.28;17.50;;;;;;;-0.61;59.05;99852.34;4936754;29;20061;-69
2021/11/18 09:31:42;;;;;;;50.88;15.63;;;;;;;-0.45;58.64;99836.31;4936509;29;20177;-70
2021/11/18 09:34:09;;;;;;;64.85;18.83;;;;;;;-0.46;58.94;99829.41;4935775;29;20051;-70
2021/11/18 09:36:35;;;;;;;51.97;17.25;;;;;;;-0.56;58.99;99834.00;4936396;29;20053;-72
2021/11/18 09:39:04;;;;;;;49.58;15.20;;;;;;;-0.67;58.74;99834.34;4936590;29;20047;-72
2021/11/18 09:41:57;;;;;;;;;;;;;;;-0.68;58.82;99830.03;4937070;29;20063;-70
2021/11/18 09:44:48;;;;;;;51.00;14.18;;;;;;;-0.79;58.54;99835.50;4954127;29;19926;-69
2021/11/18 09:48:00;;;;;;;48.45;15.77;;;;;;;-0.64;58.12;99839.41;4920926;29;20501;-70
2021/11/18 09:50:42;;;;;;;46.92;14.27;;;;;;;-0.78;58.24;99849.38;4939996;29;20055;-68
2021/11/18 09:53:33;;;;;;;43.78;14.20;;;;;;;-0.72;57.80;99844.00;4921337;29;20130;-70
2021/11/18 09:56:09;;;;;;;56.15;15.02;;;;;;;-0.71;57.88;99846.56;4921243;29;20106;-69
2021/11/18 09:58:45;;;;;;;52.05;15.80;;;;;;;-0.73;57.95;99837.09;4935949;29;20047;-68
2021/11/18 10:01:45;;;;;;;57.50;19.57;;;;;;;-0.66;57.41;99833.44;4931648;29;20047;-69
2021/11/18 10:04:34;;;;;;;55.47;17.08;;;;;;;-0.62;57.05;99816.88;4924061;29;20054;-66
2021/11/18 10:07:03;;;;;;;45.67;14.52;;;;;;;-0.71;57.31;99809.31;4917662;29;20051;-73
2021/11/18 10:09:52;;;;;;;52.35;15.75;;;;;;;-0.52;57.00;99807.91;4933020;29;20138;-70
2021/11/18 10:12:48;;;;;;;49.05;16.25;;;;;;;-0.46;56.90;99798.22;4901219;29;20048;-69
2021/11/18 10:15:19;;;;;;;53.63;16.38;;;;;;;-0.33;56.34;99804.75;4917317;29;20039;-70
2021/11/18 10:17:52;;;;;;;45.63;14.60;;;;;;;-0.20;56.45;99798.31;4917289;29;20051;-68
2021/11/18 10:20:28;;;;;;;45.25;15.80;;;;;;;-0.18;56.02;99799.09;4917163;29;20047;-72
2021/11/18 10:22:59;;;;;;;45.80;14.88;;;;;;;-0.29;55.90;99795.13;4934521;29;20051;-70
2021/11/18 10:25:32;;;;;;;47.03;14.85;;;;;;;-0.26;56.16;99792.41;4934161;29;20527;-68
2021/11/18 10:28:20;;;;;;;49.22;16.48;;;;;;;-0.21;55.91;99778.41;4933137;29;20046;-69
2021/11/18 10:31:17;;;;;;;46.20;15.68;;;;;;;-0.24;56.04;99778.47;4934520;29;20501;-69
2021/11/18 10:33:53;;;;;;;53.05;16.55;;;;;;;-0.13;55.64;99764.31;4934262;29;20054;-69
2021/11/18 10:36:41;;;;;;;43.58;15.68;;;;;;;0.07;55.09;99753.28;4917644;29;20114;-72
2021/11/18 10:39:22;;;;;;;44.47;14.25;;;;;;;0.05;55.65;99758.53;4934823;29;20137;-71
2021/11/18 10:42:24;;;;;;;42.33;15.98;;;;;;;-0.16;55.41;99752.28;4917467;29;20062;-69
2021/11/18 10:45:25;;;;;;;55.55;17.25;;;;;;;-0.06;56.02;99747.63;4917414;29;20076;-70
2021/11/18 10:47:51;;;;;;;43.97;15.32;;;;;;;-0.13;55.67;99746.13;4909539;29;20130;-67
2021/11/18 10:50:39;;;;;;;47.22;15.20;;;;;;;-0.09;55.84;99742.50;4934310;29;20143;-70
2021/11/18 10:53:16;;;;;;;42.63;14.02;;;;;;;-0.17;55.62;99737.56;4934486;29;20146;-73
2021/11/18 10:55:46;;;;;;;40.97;12.82;;;;;;;-0.34;56.36;99732.91;4917223;29;20486;-69
2021/11/18 10:58:29;;;;;;;45.80;16.45;;;;;;;-0.28;56.24;99724.91;4917123;29;20043;-72
2021/11/18 11:01:02;;;;;;;60.30;15.27;;;;;;;-0.21;55.90;99726.41;4934385;29;20048;-69
2021/11/18 11:03:33;;;;;;;44.78;14.40;;;;;;;-0.29;56.47;99725.78;4916772;29;20069;-69
2021/11/18 11:06:22;;;;;;;44.80;14.95;;;;;;;-0.32;56.58;99728.50;4934205;29;20103;-70
2021/11/18 11:09:12;;;;;;;63.20;17.75;;;;;;;-0.29;56.95;99711.97;4934338;29;20047;-71
2021/11/18 11:11:57;;;;;;;56.90;16.92;;;;;;;-0.27;56.81;99704.97;4934323;29;20134;-70
2021/11/18 11:14:50;;;;;;;51.22;15.52;;;;;;;-0.45;56.75;99716.78;4933695;29;20051;-67
2021/11/18 11:17:40;;;;;;;47.90;16.83;;;;;;;-0.50;57.20;99710.00;4916792;29;20500;-71
2021/11/18 11:20:20;;;;;;;44.92;15.10;;;;;;;-0.47;57.61;99715.97;4885909;29;20465;-70
2021/11/18 11:23:15;;;;;;;54.47;19.15;;;;;;;-0.55;57.65;99705.81;4901252;29;20110;-74
2021/11/18 11:25:53;;;;;;;46.67;17.15;;;;;;;-0.62;57.93;99700.00;4933915;29;20050;-71
2021/11/18 11:28:49;;;;;;;61.63;19.33;;;;;;;-0.68;58.45;99690.63;4917239;29;20060;-71
2021/11/18 11:31:49;;;;;;;60.53;20.45;;;;;;;-0.75;58.74;99683.06;4917064;29;20107;-71
2021/11/18 11:34:31;;;;;;;54.78;18.45;;;;;;;-0.76;58.79;99676.16;4941932;29;20102;-70
2021/11/18 11:37:33;;;;;;;53.53;17.85;;;;;;;-0.65;58.46;99674.09;4953168;29;20481;-71